createdAt,value
2023-09-17T00:01:19.539Z,98264.25
2023-09-17T00:03:46.274Z,98263.13
2023-09-17T00:06:13.045Z,98255.81
2023-09-17T00:08:39.531Z,98269.75
2023-09-17T00:11:08.149Z,98259.84
2023-09-17T00:13:34.760Z,98264.25
2023-09-17T00:16:01.665Z,98263.16
2023-09-17T00:18:28.642Z,98266.81
2023-09-17T00:20:55.105Z,98261.69
2023-09-17T00:23:21.739Z,98261.63
2023-09-17T00:25:48.254Z,98264.22
2023-09-17T00:28:15.023Z,98259.41
2023-09-17T00:30:41.724Z,98262.72
2023-09-17T00:33:08.249Z,98268.22
2023-09-17T00:35:34.795Z,98259.06
2023-09-17T00:38:01.284Z,98262.75
2023-09-17T00:40:31.423Z,98255.44
2023-09-17T00:42:57.880Z,98259.50
2023-09-17T00:45:24.553Z,98251.03
2023-09-17T00:47:51.474Z,98255.09
2023-09-17T00:50:18.083Z,98255.09
2023-09-17T00:52:45.988Z,98253.25
2023-09-17T00:55:12.491Z,98254.34
2023-09-17T00:57:41.830Z,98255.84
2023-09-17T01:00:10.979Z,98257.31
2023-09-17T01:02:39.151Z,98247.41
2023-09-17T01:05:06.406Z,98248.91
2023-09-17T01:07:34.746Z,98248.91
2023-09-17T01:10:02.272Z,98247.84
2023-09-17T01:12:28.835Z,98248.91
2023-09-17T01:14:56.080Z,98251.09
2023-09-17T01:17:28.684Z,98243.09
2023-09-17T01:19:56.483Z,98247.47
2023-09-17T01:22:30.597Z,98240.53
2023-09-17T01:25:07.830Z,98250.41
2023-09-17T01:27:34.779Z,98247.47
2023-09-17T01:30:01.192Z,98237.59
2023-09-17T01:32:27.657Z,98236.50
2023-09-17T01:34:54.345Z,98233.94
2023-09-17T01:37:35.550Z,98242.72
2023-09-17T01:40:11.888Z,98244.22
2023-09-17T01:42:41.404Z,98246.78
2023-09-17T01:45:10.329Z,98243.09
2023-09-17T01:47:38.312Z,98247.13
2023-09-17T01:50:06.174Z,98251.91
2023-09-17T01:52:35.857Z,98250.09
2023-09-17T01:55:03.712Z,98253.00
2023-09-17T01:57:30.641Z,98252.28
2023-09-17T01:59:57.240Z,98252.66
2023-09-17T02:02:24.303Z,98254.09
2023-09-17T02:04:50.759Z,98259.59
2023-09-17T02:07:17.505Z,98254.47
2023-09-17T02:09:44.105Z,98260.69
2023-09-17T02:12:10.625Z,98263.25
2023-09-17T02:14:37.053Z,98249.72
2023-09-17T02:17:04.439Z,98252.25
2023-09-17T02:19:30.810Z,98251.91
2023-09-17T02:21:57.283Z,98253.75
2023-09-17T02:24:23.705Z,98248.63
2023-09-17T02:26:50.149Z,98250.81
2023-09-17T02:29:16.659Z,98250.81
2023-09-17T02:31:43.199Z,98250.09
2023-09-17T02:34:09.786Z,98256.28
2023-09-17T02:36:37.627Z,98247.91
2023-09-17T02:39:04.802Z,98245.34
2023-09-17T02:41:31.253Z,98245.34
2023-09-17T02:43:58.385Z,98234.34
2023-09-17T02:46:24.921Z,98243.13
2023-09-17T02:48:52.165Z,98243.47
2023-09-17T02:51:18.634Z,98242.41
2023-09-17T02:53:47.963Z,98242.38
2023-09-17T02:56:14.645Z,98251.16
2023-09-17T02:58:41.253Z,98255.94
2023-09-17T03:01:19.332Z,98254.81
2023-09-17T03:03:46.537Z,98252.63
2023-09-17T03:06:13.355Z,98252.63
2023-09-17T03:08:42.672Z,98259.94
2023-09-17T03:11:14.924Z,98265.78
2023-09-17T03:13:43.367Z,98261.78
2023-09-17T03:16:10.341Z,98261.03
2023-09-17T03:18:36.801Z,98259.94
2023-09-17T03:21:07.366Z,98255.53
2023-09-17T03:23:34.480Z,98266.16
2023-09-17T03:26:04.645Z,98262.50
2023-09-17T03:28:34.493Z,98259.56
2023-09-17T03:31:02.150Z,98249.31
2023-09-17T03:33:29.296Z,98264.31
2023-09-17T03:35:55.956Z,98275.66
2023-09-17T03:38:22.382Z,98261.41
2023-09-17T03:40:48.878Z,98265.06
2023-09-17T03:43:15.794Z,98266.50
2023-09-17T03:45:42.557Z,98259.19
2023-09-17T03:48:09.202Z,98260.66
2023-09-17T03:50:40.520Z,98254.09
2023-09-17T03:53:07.765Z,98267.25
2023-09-17T03:55:35.396Z,98258.44
2023-09-17T03:58:02.771Z,98261.38
2023-09-17T04:00:29.243Z,98261.03
2023-09-17T04:02:56.224Z,98273.47
2023-09-17T04:05:23.288Z,98262.13
2023-09-17T04:07:49.874Z,98270.53
2023-09-17T04:10:18.440Z,98272.00
2023-09-17T04:12:46.365Z,98274.16
2023-09-17T04:15:17.882Z,98276.00
2023-09-17T04:17:45.678Z,98272.69
2023-09-17T04:20:15.693Z,98280.78
2023-09-17T04:22:43.308Z,98284.81
2023-09-17T04:25:11.138Z,98277.13
2023-09-17T04:27:38.720Z,98281.09
2023-09-17T04:30:08.527Z,98286.63
2023-09-17T04:32:38.800Z,98281.09
2023-09-17T04:35:09.363Z,98284.03
2023-09-17T04:37:36.865Z,98280.41
2023-09-17T04:40:09.642Z,98286.97
2023-09-17T04:42:37.218Z,98291.34
2023-09-17T04:45:05.354Z,98286.22
2023-09-17T04:47:34.490Z,98291.00
2023-09-17T04:50:01.403Z,98289.16
2023-09-17T04:52:28.058Z,98297.22
2023-09-17T04:54:54.882Z,98298.28
2023-09-17T04:57:21.367Z,98297.94
2023-09-17T04:59:47.970Z,98307.50
2023-09-17T05:02:17.771Z,98308.56
2023-09-17T05:04:46.086Z,98308.19
2023-09-17T05:07:12.895Z,98303.44
2023-09-17T05:09:39.363Z,98309.31
2023-09-17T05:12:06.822Z,98303.44
2023-09-17T05:14:33.197Z,98314.44
2023-09-17T05:16:59.714Z,98318.78
2023-09-17T05:19:26.274Z,98318.06
2023-09-17T05:21:52.861Z,98330.50
2023-09-17T05:24:19.387Z,98322.09
2023-09-17T05:26:45.852Z,98329.44
2023-09-17T05:29:16.871Z,98330.19
2023-09-17T05:31:43.828Z,98330.88
2023-09-17T05:34:10.613Z,98333.13
2023-09-17T05:36:37.059Z,98340.78
2023-09-17T05:39:04.505Z,98335.69
2023-09-17T05:41:31.255Z,98339.34
2023-09-17T05:43:57.740Z,98349.63
2023-09-17T05:46:24.288Z,98355.47
2023-09-17T05:48:50.818Z,98357.34
2023-09-17T05:51:17.317Z,98356.97
2023-09-17T05:53:43.769Z,98361.72
2023-09-17T05:56:12.350Z,98357.31
2023-09-17T05:58:39.003Z,98362.81
2023-09-17T06:01:05.866Z,98362.06
2023-09-17T06:03:32.797Z,98362.75
2023-09-17T06:05:59.489Z,98361.22
2023-09-17T06:08:29.325Z,98364.06
2023-09-17T06:10:56.631Z,98373.50
2023-09-17T06:13:23.945Z,98368.22
2023-09-17T06:15:50.880Z,98361.44
2023-09-17T06:18:18.806Z,98369.31
2023-09-17T06:20:45.516Z,98366.50
2023-09-17T06:23:11.996Z,98362.56
2023-09-17T06:25:38.846Z,98362.97
2023-09-17T06:28:05.724Z,98364.13
2023-09-17T06:30:32.274Z,98359.25
2023-09-17T06:32:58.753Z,98365.28
2023-09-17T06:35:25.598Z,98360.97
2023-09-17T06:37:52.144Z,98357.44
2023-09-17T06:40:18.797Z,98370.03
2023-09-17T06:42:45.248Z,98367.81
2023-09-17T06:45:12.621Z,98363.78
2023-09-17T06:47:39.155Z,98365.66
2023-09-17T06:50:07.488Z,98358.50
2023-09-17T06:52:34.108Z,98360.34
2023-09-17T06:55:00.589Z,98361.31
2023-09-17T06:57:27.153Z,98354.25
2023-09-17T06:59:54.391Z,98356.16
2023-09-17T07:02:20.741Z,98356.31
2023-09-17T07:04:47.388Z,98354.25
2023-09-17T07:07:13.855Z,98350.38
2023-09-17T07:09:40.322Z,98344.47
2023-09-17T07:12:07.405Z,98352.25
2023-09-17T07:14:34.100Z,98351.50
2023-09-17T07:17:00.635Z,98359.00
2023-09-17T07:19:28.582Z,98355.34
2023-09-17T07:21:55.222Z,98351.47
2023-09-17T07:24:21.839Z,98341.84
2023-09-17T07:26:48.344Z,98344.84
2023-09-17T07:29:14.858Z,98345.19
2023-09-17T07:31:42.528Z,98343.34
2023-09-17T07:34:09.008Z,98346.50
2023-09-17T07:36:35.610Z,98346.47
2023-09-17T07:39:02.164Z,98342.38
2023-09-17T07:41:31.559Z,98342.41
2023-09-17T07:43:58.793Z,98343.44
2023-09-17T07:46:25.473Z,98342.13
2023-09-17T07:48:52.042Z,98341.63
2023-09-17T07:51:18.800Z,98347.69
2023-09-17T07:53:47.384Z,98352.53
2023-09-17T07:56:15.257Z,98352.50
2023-09-17T07:58:43.883Z,98349.88
2023-09-17T08:01:12.452Z,98354.19
2023-09-17T08:03:38.898Z,98352.53
2023-09-17T08:06:06.588Z,98354.78
2023-09-17T08:08:33.632Z,98356.22
2023-09-17T08:11:00.074Z,98356.16
2023-09-17T08:13:26.629Z,98355.88
2023-09-17T08:15:53.208Z,98360.38
2023-09-17T08:18:19.726Z,98355.03
2023-09-17T08:20:46.400Z,98356.16
2023-09-17T08:23:12.858Z,98351.41
2023-09-17T08:25:39.259Z,98358.63
2023-09-17T08:28:10.066Z,98365.41
2023-09-17T08:30:39.803Z,98366.31
2023-09-17T08:33:06.878Z,98358.19
2023-09-17T08:35:33.338Z,98358.97
2023-09-17T08:38:00.124Z,98355.75
2023-09-17T08:40:31.335Z,98359.41
2023-09-17T08:43:00.083Z,98357.16
2023-09-17T08:45:28.784Z,98353.50
2023-09-17T08:47:55.580Z,98351.50
2023-09-17T08:50:22.232Z,98352.00
2023-09-17T08:52:55.174Z,98352.91
2023-09-17T08:55:22.882Z,98354.63
2023-09-17T08:58:02.869Z,98357.78
2023-09-17T09:00:32.978Z,98349.25
2023-09-17T09:03:05.161Z,98352.66
2023-09-17T09:05:32.152Z,98352.78
2023-09-17T09:07:58.769Z,98348.75
2023-09-17T09:10:25.873Z,98359.88
2023-09-17T09:12:52.922Z,98353.16
2023-09-17T09:15:19.369Z,98354.63
2023-09-17T09:17:45.810Z,98358.84
2023-09-17T09:20:12.920Z,98353.97
2023-09-17T09:22:39.800Z,98355.19
2023-09-17T09:25:08.539Z,98356.66
2023-09-17T09:27:35.011Z,98355.97
2023-09-17T09:30:05.996Z,98352.25
2023-09-17T09:32:33.396Z,98348.16
2023-09-17T09:35:02.690Z,98338.97
2023-09-17T09:37:29.734Z,98339.59
2023-09-17T09:39:56.669Z,98343.25
2023-09-17T09:42:27.113Z,98342.66
2023-09-17T09:44:54.727Z,98331.25
2023-09-17T09:47:23.942Z,98338.38
2023-09-17T09:49:51.194Z,98340.59
2023-09-17T09:52:19.237Z,98336.00
2023-09-17T09:54:47.503Z,98335.44
2023-09-17T09:57:19.617Z,98335.53
2023-09-17T09:59:48.763Z,98324.97
2023-09-17T10:02:17.389Z,98325.16
2023-09-17T10:04:47.712Z,98326.56
2023-09-17T10:07:15.930Z,98326.00
2023-09-17T10:09:42.868Z,98329.47
2023-09-17T10:12:09.980Z,98323.41
2023-09-17T10:14:38.863Z,98330.63
2023-09-17T10:17:11.222Z,98312.59
2023-09-17T10:19:38.044Z,98316.38
2023-09-17T10:22:08.581Z,98322.47
2023-09-17T10:24:37.922Z,98324.97
2023-09-17T10:27:08.533Z,98327.91
2023-09-17T10:29:39.761Z,98324.78
2023-09-17T10:32:07.025Z,98325.13
2023-09-17T10:34:36.883Z,98324.25
2023-09-17T10:37:04.859Z,98317.44
2023-09-17T10:39:34.289Z,98327.53
2023-09-17T10:42:07.059Z,98322.22
2023-09-17T10:44:37.521Z,98319.44
2023-09-17T10:47:07.498Z,98332.00
2023-09-17T10:49:37.580Z,98317.66
2023-09-17T10:52:06.180Z,98320.28
2023-09-17T10:54:32.680Z,98319.03
2023-09-17T10:57:05.503Z,98319.22
2023-09-17T10:59:32.517Z,98317.00
2023-09-17T11:02:00.110Z,98313.91
2023-09-17T11:04:27.683Z,98319.53
2023-09-17T11:06:55.217Z,98317.03
2023-09-17T11:09:22.028Z,98316.63
2023-09-17T11:11:48.678Z,98313.38
2023-09-17T11:14:16.682Z,98311.56
2023-09-17T11:16:43.525Z,98309.44
2023-09-17T11:19:17.490Z,98305.66
2023-09-17T11:21:48.939Z,98314.13
2023-09-17T11:24:18.971Z,98317.94
2023-09-17T11:26:46.756Z,98320.13
2023-09-17T11:29:13.778Z,98314.69
2023-09-17T11:31:52.510Z,98315.34
2023-09-17T11:34:19.105Z,98313.94
2023-09-17T11:36:49.043Z,98310.91
2023-09-17T11:39:17.215Z,98305.03
2023-09-17T11:41:47.619Z,98305.91
2023-09-17T11:44:14.761Z,98306.09
2023-09-17T11:46:43.442Z,98305.19
2023-09-17T11:49:13.043Z,98305.22
2023-09-17T11:51:44.325Z,98307.31
2023-09-17T11:54:17.042Z,98312.84
2023-09-17T11:56:49.015Z,98304.94
2023-09-17T11:59:18.391Z,98305.25
2023-09-17T12:01:56.012Z,98310.00
2023-09-17T12:04:27.757Z,98295.88
2023-09-17T12:06:55.329Z,98305.41
2023-09-17T12:09:39.573Z,98302.91
2023-09-17T12:12:07.770Z,98307.00
2023-09-17T12:14:34.691Z,98308.00
2023-09-17T12:17:02.559Z,98295.44
2023-09-17T12:19:29.930Z,98307.06
2023-09-17T12:21:59.556Z,98297.91
2023-09-17T12:24:45.690Z,98293.50
2023-09-17T12:27:25.676Z,98309.13
2023-09-17T12:29:55.486Z,98302.59
2023-09-17T12:32:26.668Z,98300.34
2023-09-17T12:34:54.591Z,98305.72
2023-09-17T12:37:22.555Z,98300.94
2023-09-17T12:39:50.955Z,98293.69
2023-09-17T12:42:22.144Z,98293.69
2023-09-17T12:44:49.522Z,98279.78
2023-09-17T12:47:16.759Z,98285.16
2023-09-17T12:49:43.986Z,98284.78
2023-09-17T12:52:12.275Z,98285.16
2023-09-17T12:54:39.058Z,98276.41
2023-09-17T12:57:05.551Z,98282.81
2023-09-17T12:59:32.790Z,98266.97
2023-09-17T13:02:01.598Z,98274.03
2023-09-17T13:04:42.282Z,98264.72
2023-09-17T13:07:29.001Z,98269.09
2023-09-17T13:09:59.750Z,98267.31
2023-09-17T13:12:29.349Z,98270.44
2023-09-17T13:14:56.476Z,98262.28
2023-09-17T13:17:24.663Z,98264.94
2023-09-17T13:19:51.824Z,98255.19
2023-09-17T13:22:20.168Z,98259.34
2023-09-17T13:24:47.227Z,98248.66
2023-09-17T13:27:18.434Z,98249.38
2023-09-17T13:29:52.565Z,98250.47
2023-09-17T13:32:20.407Z,98239.53
2023-09-17T13:34:47.750Z,98243.19
2023-09-17T13:37:15.781Z,98238.63
2023-09-17T13:39:47.083Z,98243.78
2023-09-17T13:42:13.640Z,98242.94
2023-09-17T13:44:40.518Z,98235.03
2023-09-17T13:47:08.771Z,98240.00
2023-09-17T13:49:35.388Z,98230.00
2023-09-17T13:52:01.963Z,98231.69
2023-09-17T13:54:28.480Z,98234.19
2023-09-17T13:56:54.989Z,98227.25
2023-09-17T13:59:21.503Z,98228.28
2023-09-17T14:01:48.191Z,98233.00
2023-09-17T14:04:15.005Z,98227.13
2023-09-17T14:06:41.504Z,98223.34
2023-09-17T14:09:08.111Z,98220.31
2023-09-17T14:11:36.998Z,98228.03
2023-09-17T14:14:04.455Z,98219.56
2023-09-17T14:16:31.125Z,98215.56
2023-09-17T14:18:57.567Z,98216.91
2023-09-17T14:21:24.130Z,98224.31
2023-09-17T14:23:50.584Z,98219.59
2023-09-17T14:26:17.071Z,98220.06
2023-09-17T14:28:43.598Z,98217.50
2023-09-17T14:31:10.120Z,98226.91
2023-09-17T14:33:36.665Z,98216.84
2023-09-17T14:36:03.673Z,98220.88
2023-09-17T14:38:30.186Z,98222.50
2023-09-17T14:40:56.630Z,98220.66
2023-09-17T14:43:23.773Z,98215.63
2023-09-17T14:45:50.395Z,98216.47
2023-09-17T14:48:17.014Z,98216.72
2023-09-17T14:50:43.472Z,98213.13
2023-09-17T14:53:10.098Z,98220.31
2023-09-17T14:55:36.690Z,98217.63
2023-09-17T14:58:03.578Z,98211.69
2023-09-17T15:00:29.947Z,98210.53
2023-09-17T15:02:56.596Z,98209.66
2023-09-17T15:05:23.221Z,98212.28
2023-09-17T15:07:50.302Z,98212.44
2023-09-17T15:10:16.938Z,98217.59
2023-09-17T15:12:43.396Z,98219.22
2023-09-17T15:15:11.603Z,98216.44
2023-09-17T15:17:38.416Z,98215.53
2023-09-17T15:20:05.665Z,98204.22
2023-09-17T15:22:32.396Z,98200.78
2023-09-17T15:24:58.852Z,98210.88
2023-09-17T15:27:25.913Z,98217.63
2023-09-17T15:29:53.259Z,98217.28
2023-09-17T15:32:23.309Z,98215.50
2023-09-17T15:34:50.097Z,98214.97
2023-09-17T15:37:16.715Z,98209.97
2023-09-17T15:39:44.591Z,98206.50
2023-09-17T15:42:11.012Z,98208.75
2023-09-17T15:44:38.482Z,98208.03
2023-09-17T15:47:05.364Z,98207.19
2023-09-17T15:49:31.962Z,98220.25
2023-09-17T15:51:58.626Z,98218.28
2023-09-17T15:54:25.330Z,98211.47
2023-09-17T15:56:51.997Z,98214.41
2023-09-17T15:59:18.465Z,98212.69
2023-09-17T16:01:45.761Z,98220.78
2023-09-17T16:04:12.602Z,98228.50
2023-09-17T16:06:39.755Z,98218.25
2023-09-17T16:09:06.226Z,98221.03
2023-09-17T16:11:33.907Z,98220.56
2023-09-17T16:14:00.460Z,98212.84
2023-09-17T16:16:27.111Z,98211.31
2023-09-17T16:18:53.769Z,98219.00
2023-09-17T16:21:20.233Z,98230.06
2023-09-17T16:23:46.784Z,98227.25
2023-09-17T16:26:13.592Z,98220.50
2023-09-17T16:28:40.399Z,98222.81
2023-09-17T16:31:06.912Z,98227.44
2023-09-17T16:33:33.665Z,98227.91
2023-09-17T16:36:00.810Z,98229.41
2023-09-17T16:38:27.441Z,98230.50
2023-09-17T16:40:54.160Z,98238.75
2023-09-17T16:43:22.161Z,98239.34
2023-09-17T16:45:48.666Z,98243.41
2023-09-17T16:48:15.098Z,98237.81
2023-09-17T16:50:41.609Z,98234.06
2023-09-17T16:53:08.216Z,98228.31
2023-09-17T16:55:37.407Z,98230.63
2023-09-17T16:58:04.228Z,98230.53
2023-09-17T17:00:30.695Z,98250.34
2023-09-17T17:02:57.296Z,98242.59
2023-09-17T17:05:23.829Z,98240.28
2023-09-17T17:07:50.516Z,98242.59
2023-09-17T17:10:17.581Z,98246.94
2023-09-17T17:12:43.961Z,98240.00
2023-09-17T17:15:10.811Z,98233.69
2023-09-17T17:17:38.075Z,98234.25
2023-09-17T17:20:05.143Z,98244.66
2023-09-17T17:22:41.697Z,98243.34
2023-09-17T17:25:09.148Z,98239.75
2023-09-17T17:27:35.732Z,98242.03
2023-09-17T17:30:03.682Z,98239.78
2023-09-17T17:32:31.341Z,98233.63
2023-09-17T17:34:57.858Z,98229.25
2023-09-17T17:37:24.285Z,98232.56
2023-09-17T17:39:50.695Z,98240.47
2023-09-17T17:42:17.298Z,98229.56
2023-09-17T17:44:43.810Z,98234.13
2023-09-17T17:47:10.609Z,98229.03
2023-09-17T17:49:37.108Z,98231.66
2023-09-17T17:52:04.422Z,98233.91
2023-09-17T17:54:31.513Z,98232.94
2023-09-17T17:56:58.527Z,98234.09
2023-09-17T17:59:25.292Z,98237.56
2023-09-17T18:01:52.089Z,98244.00
2023-09-17T18:04:18.704Z,98235.72
2023-09-17T18:06:45.119Z,98235.19
2023-09-17T18:09:11.716Z,98236.22
2023-09-17T18:11:38.217Z,98235.28
2023-09-17T18:14:04.847Z,98239.31
2023-09-17T18:16:31.390Z,98237.81
2023-09-17T18:18:57.981Z,98234.53
2023-09-17T18:21:24.523Z,98243.78
2023-09-17T18:23:51.377Z,98238.19
2023-09-17T18:26:17.988Z,98231.69
2023-09-17T18:28:44.619Z,98238.53
2023-09-17T18:31:11.532Z,98236.03
2023-09-17T18:33:39.148Z,98235.03
2023-09-17T18:36:06.548Z,98233.25
2023-09-17T18:38:33.217Z,98228.50
2023-09-17T18:40:59.670Z,98224.97
2023-09-17T18:43:26.158Z,98229.84
2023-09-17T18:45:52.703Z,98233.38
2023-09-17T18:48:19.284Z,98223.66
2023-09-17T18:50:45.922Z,98228.72
2023-09-17T18:53:12.415Z,98219.59
2023-09-17T18:55:38.935Z,98218.53
2023-09-17T18:58:05.401Z,98218.88
2023-09-17T19:00:31.916Z,98222.59
2023-09-17T19:02:58.458Z,98223.22
2023-09-17T19:05:26.267Z,98221.34
2023-09-17T19:07:52.798Z,98215.88
2023-09-17T19:10:19.501Z,98218.97
2023-09-17T19:12:46.152Z,98217.13
2023-09-17T19:15:12.791Z,98214.94
2023-09-17T19:17:39.319Z,98215.56
2023-09-17T19:20:07.084Z,98208.09
2023-09-17T19:22:34.539Z,98213.38
2023-09-17T19:25:01.155Z,98206.75
2023-09-17T19:27:29.041Z,98205.41
2023-09-17T19:29:55.541Z,98209.53
2023-09-17T19:32:22.104Z,98205.69
2023-09-17T19:34:48.603Z,98212.91
2023-09-17T19:37:16.189Z,98216.81
2023-09-17T19:39:42.786Z,98214.97
2023-09-17T19:42:09.584Z,98205.75
2023-09-17T19:44:36.274Z,98208.75
2023-09-17T19:47:02.780Z,98198.50
2023-09-17T19:49:29.270Z,98189.91
2023-09-17T19:51:55.723Z,98187.06
2023-09-17T19:54:22.176Z,98186.16
2023-09-17T19:56:48.770Z,98188.16
2023-09-17T19:59:15.787Z,98183.63
2023-09-17T20:01:42.630Z,98188.84
2023-09-17T20:04:09.327Z,98177.06
2023-09-17T20:06:47.772Z,98173.44
2023-09-17T20:09:24.058Z,98169.47
2023-09-17T20:11:50.607Z,98164.44
2023-09-17T20:14:17.175Z,98170.78
2023-09-17T20:16:43.684Z,98170.47
2023-09-17T20:19:11.063Z,98178.81
2023-09-17T20:21:37.482Z,98184.22
2023-09-17T20:24:05.891Z,98181.38
2023-09-17T20:26:32.424Z,98182.69
2023-09-17T20:28:59.881Z,98179.16
2023-09-17T20:31:26.429Z,98176.06
2023-09-17T20:33:52.956Z,98178.56
2023-09-17T20:36:19.360Z,98181.63
2023-09-17T20:38:52.639Z,98172.13
2023-09-17T20:41:19.518Z,98173.25
2023-09-17T20:43:46.319Z,98169.22
2023-09-17T20:46:13.147Z,98167.53
2023-09-17T20:48:39.663Z,98166.41
2023-09-17T20:51:06.474Z,98160.25
2023-09-17T20:53:33.418Z,98166.63
2023-09-17T20:56:00.326Z,98160.78
2023-09-17T20:58:27.324Z,98164.94
2023-09-17T21:00:53.928Z,98162.41
2023-09-17T21:03:20.681Z,98166.59
2023-09-17T21:05:50.333Z,98168.91
2023-09-17T21:08:17.098Z,98173.69
2023-09-17T21:10:43.933Z,98172.38
2023-09-17T21:13:12.080Z,98182.09
2023-09-17T21:15:39.685Z,98175.63
2023-09-17T21:18:07.462Z,98184.53
2023-09-17T21:20:34.109Z,98173.97
2023-09-17T21:23:01.409Z,98173.63
2023-09-17T21:25:28.184Z,98177.75
2023-09-17T21:27:55.311Z,98167.03
2023-09-17T21:30:21.854Z,98158.97
2023-09-17T21:32:48.648Z,98156.78
2023-09-17T21:35:15.720Z,98154.34
2023-09-17T21:37:42.287Z,98152.88
2023-09-17T21:40:09.632Z,98151.09
2023-09-17T21:42:37.017Z,98157.72
2023-09-17T21:45:04.219Z,98158.75
2023-09-17T21:47:31.079Z,98148.25
2023-09-17T21:50:00.745Z,98154.94
2023-09-17T21:52:29.879Z,98164.59
2023-09-17T21:54:57.520Z,98159.16
2023-09-17T21:57:24.588Z,98161.84
2023-09-17T21:59:51.293Z,98161.50
2023-09-17T22:02:18.155Z,98159.03
2023-09-17T22:04:44.736Z,98162.34
2023-09-17T22:07:11.584Z,98163.94
2023-09-17T22:09:39.863Z,98159.63
2023-09-17T22:12:08.014Z,98159.56
2023-09-17T22:14:35.575Z,98153.13
2023-09-17T22:17:05.992Z,98144.53
2023-09-17T22:19:33.985Z,98147.19
2023-09-17T22:22:00.472Z,98151.22
2023-09-17T22:24:26.887Z,98150.03
2023-09-17T22:26:53.398Z,98148.78
2023-09-17T22:29:20.064Z,98153.00
2023-09-17T22:31:46.611Z,98135.41
2023-09-17T22:34:13.035Z,98136.38
2023-09-17T22:36:40.505Z,98139.53
2023-09-17T22:39:07.211Z,98132.94
2023-09-17T22:41:33.775Z,98136.78
2023-09-17T22:44:11.932Z,98135.16
2023-09-17T22:46:46.708Z,98134.88
2023-09-17T22:49:13.594Z,98137.63
2023-09-17T22:51:40.101Z,98141.63
2023-09-17T22:54:06.504Z,98133.56
2023-09-17T22:56:33.522Z,98143.22
2023-09-17T22:59:00.117Z,98131.59
2023-09-17T23:01:26.778Z,98125.84
2023-09-17T23:03:53.250Z,98126.59
2023-09-17T23:06:19.983Z,98123.47
2023-09-17T23:08:46.418Z,98121.63
2023-09-17T23:11:13.282Z,98124.00
2023-09-17T23:13:41.199Z,98116.00
2023-09-17T23:16:07.969Z,98119.13
2023-09-17T23:18:35.142Z,98121.13
2023-09-17T23:21:05.319Z,98120.16
2023-09-17T23:23:32.585Z,98115.44
2023-09-17T23:26:01.240Z,98121.84
2023-09-17T23:28:33.591Z,98118.47
2023-09-17T23:31:11.892Z,98117.22
2023-09-17T23:33:38.365Z,98123.22
2023-09-17T23:36:05.247Z,98109.75
2023-09-17T23:38:32.809Z,98109.28
2023-09-17T23:40:59.345Z,98112.34
2023-09-17T23:43:26.035Z,98112.75
2023-09-17T23:45:52.929Z,98105.59
2023-09-17T23:48:19.474Z,98109.13
2023-09-17T23:50:45.947Z,98102.75
2023-09-17T23:53:12.830Z,98102.38
2023-09-17T23:55:39.580Z,98092.56
2023-09-17T23:58:06.045Z,98094.22
